sensor_id;sensor_type;location;lat;lon;timestamp;pressure;altitude;pressure_sealevel;temperature;humidity
48968;BME280;46511;53.148;8.204;2023-01-30T00:02:21;101236.09;;;6.03;100.00
48968;BME280;46511;53.148;8.204;2023-01-30T00:04:52;101240.69;;;5.96;100.00
48968;BME280;46511;53.148;8.204;2023-01-30T00:07:24;101228.94;;;6.08;100.00
48968;BME280;46511;53.148;8.204;2023-01-30T00:09:55;101232.97;;;6.20;100.00
48968;BME280;46511;53.148;8.204;2023-01-30T00:12:26;101220.69;;;6.19;100.00
48968;BME280;46511;53.148;8.204;2023-01-30T00:14:57;101221.59;;;6.44;100.00
48968;BME280;46511;53.148;8.204;2023-01-30T00:17:29;101208.00;;;6.30;100.00
48968;BME280;46511;53.148;8.204;2023-01-30T00:20:00;101190.34;;;6.32;100.00
48968;BME280;46511;53.148;8.204;2023-01-30T00:22:31;101180.34;;;6.42;100.00
48968;BME280;46511;53.148;8.204;2023-01-30T00:25:03;101177.94;;;6.34;100.00
48968;BME280;46511;53.148;8.204;2023-01-30T00:27:34;101170.47;;;6.48;100.00
48968;BME280;46511;53.148;8.204;2023-01-30T00:30:06;101152.59;;;6.56;100.00
48968;BME280;46511;53.148;8.204;2023-01-30T00:32:38;101152.97;;;6.71;100.00
48968;BME280;46511;53.148;8.204;2023-01-30T00:35:09;101137.06;;;6.47;100.00
48968;BME280;46511;53.148;8.204;2023-01-30T00:37:40;101147.06;;;6.63;100.00
48968;BME280;46511;53.148;8.204;2023-01-30T00:40:11;101132.34;;;6.57;100.00
48968;BME280;46511;53.148;8.204;2023-01-30T00:42:43;101129.84;;;6.77;100.00
48968;BME280;46511;53.148;8.204;2023-01-30T00:45:49;101114.00;;;6.52;100.00
48968;BME280;46511;53.148;8.204;2023-01-30T00:48:42;101111.97;;;6.85;100.00
48968;BME280;46511;53.148;8.204;2023-01-30T00:51:13;101116.91;;;6.70;100.00
48968;BME280;46511;53.148;8.204;2023-01-30T00:53:45;101106.81;;;6.57;100.00
48968;BME280;46511;53.148;8.204;2023-01-30T00:56:16;101094.47;;;6.83;100.00
48968;BME280;46511;53.148;8.204;2023-01-30T00:58:47;101094.72;;;6.75;100.00
48968;BME280;46511;53.148;8.204;2023-01-30T01:01:18;101080.69;;;6.98;100.00
48968;BME280;46511;53.148;8.204;2023-01-30T01:03:50;101082.00;;;6.62;100.00
48968;BME280;46511;53.148;8.204;2023-01-30T01:06:21;101070.22;;;6.95;100.00
48968;BME280;46511;53.148;8.204;2023-01-30T01:08:52;101074.28;;;6.80;100.00
48968;BME280;46511;53.148;8.204;2023-01-30T01:11:24;101054.00;;;6.57;100.00
48968;BME280;46511;53.148;8.204;2023-01-30T01:13:56;101048.75;;;6.81;100.00
48968;BME280;46511;53.148;8.204;2023-01-30T01:16:29;101035.53;;;6.81;100.00
48968;BME280;46511;53.148;8.204;2023-01-30T01:19:02;101037.38;;;6.79;100.00
48968;BME280;46511;53.148;8.204;2023-01-30T01:21:34;101055.59;;;6.62;100.00
48968;BME280;46511;53.148;8.204;2023-01-30T01:24:05;101031.75;;;6.88;100.00
48968;BME280;46511;53.148;8.204;2023-01-30T01:26:32;101021.53;;;6.79;100.00
48968;BME280;46511;53.148;8.204;2023-01-30T01:29:03;101031.41;;;6.97;100.00
48968;BME280;46511;53.148;8.204;2023-01-30T01:31:34;101012.25;;;6.92;100.00
48968;BME280;46511;53.148;8.204;2023-01-30T01:34:06;101001.09;;;7.07;100.00
48968;BME280;46511;53.148;8.204;2023-01-30T01:36:37;101011.78;;;7.04;100.00
48968;BME280;46511;53.148;8.204;2023-01-30T01:39:08;101009.50;;;6.95;100.00
48968;BME280;46511;53.148;8.204;2023-01-30T01:41:40;101020.72;;;7.00;100.00
48968;BME280;46511;53.148;8.204;2023-01-30T01:44:12;101025.00;;;7.04;100.00
48968;BME280;46511;53.148;8.204;2023-01-30T01:46:54;101010.84;;;6.82;100.00
48968;BME280;46511;53.148;8.204;2023-01-30T01:49:29;101015.09;;;7.09;100.00
48968;BME280;46511;53.148;8.204;2023-01-30T01:52:06;101001.69;;;6.92;100.00
48968;BME280;46511;53.148;8.204;2023-01-30T01:57:30;100999.66;;;6.99;100.00
48968;BME280;46511;53.148;8.204;2023-01-30T02:00:10;101000.84;;;7.13;100.00
48968;BME280;46511;53.148;8.204;2023-01-30T02:02:48;100993.22;;;7.28;100.00
48968;BME280;46511;53.148;8.204;2023-01-30T02:05:24;101003.97;;;7.01;100.00
48968;BME280;46511;53.148;8.204;2023-01-30T02:13:53;101000.06;;;6.88;100.00
48968;BME280;46511;53.148;8.204;2023-01-30T02:16:25;100971.66;;;6.95;100.00
48968;BME280;46511;53.148;8.204;2023-01-30T02:18:57;100968.03;;;6.97;100.00
48968;BME280;46511;53.148;8.204;2023-01-30T02:44:16;100910.78;;;7.20;100.00
48968;BME280;46511;53.148;8.204;2023-01-30T02:49:41;100904.31;;;7.49;100.00
48968;BME280;46511;53.148;8.204;2023-01-30T02:52:12;100910.28;;;7.32;100.00
48968;BME280;46511;53.148;8.204;2023-01-30T02:54:44;100900.31;;;7.38;100.00
48968;BME280;46511;53.148;8.204;2023-01-30T02:57:20;100910.78;;;7.41;100.00
48968;BME280;46511;53.148;8.204;2023-01-30T02:59:56;100911.50;;;7.45;100.00
48968;BME280;46511;53.148;8.204;2023-01-30T03:11:34;100893.66;;;7.50;100.00
48968;BME280;46511;53.148;8.204;2023-01-30T03:14:31;100889.97;;;7.54;100.00
48968;BME280;46511;53.148;8.204;2023-01-30T03:17:11;100888.16;;;7.75;100.00
48968;BME280;46511;53.148;8.204;2023-01-30T03:19:46;100886.84;;;7.65;100.00
48968;BME280;46511;53.148;8.204;2023-01-30T03:22:18;100893.53;;;7.73;100.00
48968;BME280;46511;53.148;8.204;2023-01-30T03:24:51;100895.38;;;7.92;100.00
48968;BME280;46511;53.148;8.204;2023-01-30T03:27:24;100891.28;;;7.64;100.00
48968;BME280;46511;53.148;8.204;2023-01-30T03:29:55;100883.41;;;7.63;100.00
48968;BME280;46511;53.148;8.204;2023-01-30T03:32:26;100880.84;;;7.82;100.00
48968;BME280;46511;53.148;8.204;2023-01-30T03:34:58;100861.00;;;7.71;100.00
48968;BME280;46511;53.148;8.204;2023-01-30T03:37:29;100873.31;;;7.72;100.00
48968;BME280;46511;53.148;8.204;2023-01-30T03:40:00;100879.91;;;7.83;100.00
48968;BME280;46511;53.148;8.204;2023-01-30T03:42:32;100882.81;;;7.97;100.00
48968;BME280;46511;53.148;8.204;2023-01-30T03:45:03;100884.41;;;7.81;100.00
48968;BME280;46511;53.148;8.204;2023-01-30T03:47:35;100877.97;;;7.86;100.00
48968;BME280;46511;53.148;8.204;2023-01-30T03:50:06;100877.94;;;8.27;100.00
48968;BME280;46511;53.148;8.204;2023-01-30T03:52:38;100876.72;;;8.34;100.00
48968;BME280;46511;53.148;8.204;2023-01-30T03:55:09;100870.81;;;8.09;100.00
48968;BME280;46511;53.148;8.204;2023-01-30T03:57:41;100877.25;;;8.61;100.00
48968;BME280;46511;53.148;8.204;2023-01-30T04:00:13;100877.47;;;8.38;100.00
48968;BME280;46511;53.148;8.204;2023-01-30T04:02:39;100877.63;;;8.35;100.00
48968;BME280;46511;53.148;8.204;2023-01-30T04:05:10;100873.47;;;8.48;100.00
48968;BME280;46511;53.148;8.204;2023-01-30T04:07:42;100871.59;;;8.50;100.00
48968;BME280;46511;53.148;8.204;2023-01-30T04:10:13;100884.50;;;8.57;100.00
48968;BME280;46511;53.148;8.204;2023-01-30T04:12:45;100882.19;;;8.50;100.00
48968;BME280;46511;53.148;8.204;2023-01-30T04:15:17;100879.13;;;8.59;100.00
48968;BME280;46511;53.148;8.204;2023-01-30T04:17:43;100875.47;;;8.62;100.00
48968;BME280;46511;53.148;8.204;2023-01-30T04:20:14;100879.47;;;8.51;100.00
48968;BME280;46511;53.148;8.204;2023-01-30T04:22:46;100881.50;;;8.65;100.00
48968;BME280;46511;53.148;8.204;2023-01-30T04:25:17;100874.03;;;8.36;100.00
48968;BME280;46511;53.148;8.204;2023-01-30T04:27:48;100881.06;;;8.55;100.00
48968;BME280;46511;53.148;8.204;2023-01-30T04:30:20;100870.91;;;8.65;100.00
48968;BME280;46511;53.148;8.204;2023-01-30T04:32:54;100875.75;;;8.37;100.00
48968;BME280;46511;53.148;8.204;2023-01-30T04:35:25;100879.19;;;8.57;100.00
48968;BME280;46511;53.148;8.204;2023-01-30T04:37:56;100869.81;;;8.11;100.00
48968;BME280;46511;53.148;8.204;2023-01-30T04:40:27;100869.91;;;8.28;100.00
48968;BME280;46511;53.148;8.204;2023-01-30T04:42:59;100874.34;;;8.28;100.00
48968;BME280;46511;53.148;8.204;2023-01-30T04:45:30;100878.53;;;8.13;100.00
48968;BME280;46511;53.148;8.204;2023-01-30T04:48:01;100875.84;;;8.34;100.00
48968;BME280;46511;53.148;8.204;2023-01-30T04:50:33;100877.28;;;8.22;100.00
48968;BME280;46511;53.148;8.204;2023-01-30T04:53:04;100882.16;;;7.92;100.00
48968;BME280;46511;53.148;8.204;2023-01-30T04:55:36;100879.59;;;7.90;100.00
48968;BME280;46511;53.148;8.204;2023-01-30T04:58:07;100874.75;;;7.80;100.00
48968;BME280;46511;53.148;8.204;2023-01-30T05:00:39;100873.31;;;7.52;100.00
48968;BME280;46511;53.148;8.204;2023-01-30T05:03:10;100884.03;;;7.69;100.00
48968;BME280;46511;53.148;8.204;2023-01-30T05:05:41;100877.13;;;7.65;100.00
48968;BME280;46511;53.148;8.204;2023-01-30T05:08:16;100872.38;;;7.53;100.00
48968;BME280;46511;53.148;8.204;2023-01-30T05:10:48;100873.38;;;7.51;100.00
48968;BME280;46511;53.148;8.204;2023-01-30T05:13:19;100886.66;;;7.49;100.00
48968;BME280;46511;53.148;8.204;2023-01-30T05:15:50;100884.34;;;7.41;100.00
48968;BME280;46511;53.148;8.204;2023-01-30T05:18:21;100889.09;;;7.33;100.00
48968;BME280;46511;53.148;8.204;2023-01-30T05:20:53;100883.97;;;7.29;100.00
48968;BME280;46511;53.148;8.204;2023-01-30T05:23:24;100893.81;;;7.25;100.00
48968;BME280;46511;53.148;8.204;2023-01-30T05:25:56;100902.53;;;7.49;100.00
48968;BME280;46511;53.148;8.204;2023-01-30T05:28:27;100898.47;;;7.40;100.00
48968;BME280;46511;53.148;8.204;2023-01-30T05:30:59;100896.59;;;7.22;100.00
48968;BME280;46511;53.148;8.204;2023-01-30T05:33:33;100895.16;;;7.35;100.00
48968;BME280;46511;53.148;8.204;2023-01-30T05:36:05;100903.78;;;7.19;100.00
48968;BME280;46511;53.148;8.204;2023-01-30T05:38:37;100903.03;;;7.15;100.00
48968;BME280;46511;53.148;8.204;2023-01-30T05:41:09;100896.22;;;7.31;100.00
48968;BME280;46511;53.148;8.204;2023-01-30T05:43:41;100903.00;;;7.37;100.00
48968;BME280;46511;53.148;8.204;2023-01-30T05:46:12;100897.28;;;7.05;100.00
48968;BME280;46511;53.148;8.204;2023-01-30T05:48:44;100905.88;;;7.32;100.00
48968;BME280;46511;53.148;8.204;2023-01-30T05:51:16;100889.94;;;7.34;100.00
48968;BME280;46511;53.148;8.204;2023-01-30T05:53:49;100896.03;;;7.14;100.00
48968;BME280;46511;53.148;8.204;2023-01-30T05:56:21;100896.47;;;7.25;100.00
48968;BME280;46511;53.148;8.204;2023-01-30T05:58:54;100900.13;;;7.63;100.00
48968;BME280;46511;53.148;8.204;2023-01-30T06:01:26;100903.00;;;7.37;100.00
48968;BME280;46511;53.148;8.204;2023-01-30T06:03:58;100904.28;;;7.06;100.00
48968;BME280;46511;53.148;8.204;2023-01-30T06:06:30;100913.31;;;7.23;100.00
48968;BME280;46511;53.148;8.204;2023-01-30T06:09:01;100909.19;;;7.15;100.00
48968;BME280;46511;53.148;8.204;2023-01-30T06:11:32;100916.13;;;7.18;100.00
48968;BME280;46511;53.148;8.204;2023-01-30T06:14:04;100910.78;;;6.98;100.00
48968;BME280;46511;53.148;8.204;2023-01-30T06:16:35;100904.78;;;6.94;100.00
48968;BME280;46511;53.148;8.204;2023-01-30T06:19:06;100901.44;;;6.89;100.00
48968;BME280;46511;53.148;8.204;2023-01-30T06:21:38;100900.44;;;6.92;100.00
48968;BME280;46511;53.148;8.204;2023-01-30T06:24:09;100896.41;;;6.83;100.00
48968;BME280;46511;53.148;8.204;2023-01-30T06:26:40;100919.50;;;6.78;100.00
48968;BME280;46511;53.148;8.204;2023-01-30T06:29:12;100905.75;;;6.46;100.00
48968;BME280;46511;53.148;8.204;2023-01-30T06:31:43;100910.78;;;6.76;100.00
48968;BME280;46511;53.148;8.204;2023-01-30T06:34:14;100898.72;;;6.69;100.00
48968;BME280;46511;53.148;8.204;2023-01-30T06:36:46;100903.22;;;6.67;100.00
48968;BME280;46511;53.148;8.204;2023-01-30T06:39:17;100897.63;;;6.74;100.00
48968;BME280;46511;53.148;8.204;2023-01-30T06:41:48;100893.22;;;6.75;100.00
48968;BME280;46511;53.148;8.204;2023-01-30T06:44:19;100905.72;;;6.70;100.00
48968;BME280;46511;53.148;8.204;2023-01-30T06:46:51;100900.63;;;6.65;100.00
48968;BME280;46511;53.148;8.204;2023-01-30T06:49:22;100900.28;;;6.51;100.00
48968;BME280;46511;53.148;8.204;2023-01-30T06:51:54;100900.06;;;6.57;100.00
48968;BME280;46511;53.148;8.204;2023-01-30T06:54:25;100906.97;;;6.83;100.00
48968;BME280;46511;53.148;8.204;2023-01-30T06:56:56;100905.44;;;6.77;100.00
48968;BME280;46511;53.148;8.204;2023-01-30T06:59:27;100913.13;;;6.83;100.00
48968;BME280;46511;53.148;8.204;2023-01-30T07:01:59;100908.22;;;6.96;100.00
48968;BME280;46511;53.148;8.204;2023-01-30T07:04:30;100899.44;;;6.72;100.00
48968;BME280;46511;53.148;8.204;2023-01-30T07:07:01;100908.69;;;6.84;100.00
48968;BME280;46511;53.148;8.204;2023-01-30T07:09:32;100906.06;;;6.84;100.00
48968;BME280;46511;53.148;8.204;2023-01-30T07:12:04;100909.06;;;6.97;100.00
48968;BME280;46511;53.148;8.204;2023-01-30T07:14:35;100910.22;;;6.68;100.00
48968;BME280;46511;53.148;8.204;2023-01-30T07:17:06;100898.50;;;6.75;100.00
48968;BME280;46511;53.148;8.204;2023-01-30T07:19:38;100911.91;;;6.92;100.00
48968;BME280;46511;53.148;8.204;2023-01-30T07:22:09;100905.84;;;7.10;100.00
48968;BME280;46511;53.148;8.204;2023-01-30T07:24:40;100910.63;;;7.02;100.00
48968;BME280;46511;53.148;8.204;2023-01-30T07:27:13;100912.38;;;7.24;100.00
48968;BME280;46511;53.148;8.204;2023-01-30T07:29:44;100902.44;;;7.30;100.00
48968;BME280;46511;53.148;8.204;2023-01-30T07:32:16;100909.00;;;7.42;100.00
48968;BME280;46511;53.148;8.204;2023-01-30T07:34:49;100901.94;;;7.21;100.00
48968;BME280;46511;53.148;8.204;2023-01-30T07:37:20;100903.28;;;7.09;100.00
48968;BME280;46511;53.148;8.204;2023-01-30T07:39:52;100919.53;;;7.22;100.00
48968;BME280;46511;53.148;8.204;2023-01-30T07:42:23;100909.91;;;7.41;100.00
48968;BME280;46511;53.148;8.204;2023-01-30T07:44:54;100918.00;;;7.36;100.00
48968;BME280;46511;53.148;8.204;2023-01-30T07:47:25;100905.47;;;7.20;100.00
48968;BME280;46511;53.148;8.204;2023-01-30T07:49:57;100918.88;;;7.37;100.00
48968;BME280;46511;53.148;8.204;2023-01-30T07:52:28;100923.31;;;7.14;100.00
48968;BME280;46511;53.148;8.204;2023-01-30T07:54:59;100915.31;;;7.38;100.00
48968;BME280;46511;53.148;8.204;2023-01-30T07:57:30;100913.56;;;7.79;100.00
48968;BME280;46511;53.148;8.204;2023-01-30T08:00:03;100920.66;;;7.79;100.00
48968;BME280;46511;53.148;8.204;2023-01-30T08:02:35;100920.91;;;7.72;100.00
48968;BME280;46511;53.148;8.204;2023-01-30T08:05:06;100923.66;;;7.49;100.00
48968;BME280;46511;53.148;8.204;2023-01-30T08:07:38;100920.78;;;7.33;100.00
48968;BME280;46511;53.148;8.204;2023-01-30T08:10:09;100911.03;;;7.76;100.00
48968;BME280;46511;53.148;8.204;2023-01-30T08:12:41;100908.63;;;7.71;100.00
48968;BME280;46511;53.148;8.204;2023-01-30T08:15:12;100916.63;;;7.70;100.00
48968;BME280;46511;53.148;8.204;2023-01-30T08:17:43;100909.44;;;7.31;100.00
48968;BME280;46511;53.148;8.204;2023-01-30T08:20:15;100917.34;;;7.73;100.00
48968;BME280;46511;53.148;8.204;2023-01-30T08:22:47;100907.16;;;7.64;100.00
48968;BME280;46511;53.148;8.204;2023-01-30T08:25:19;100894.59;;;7.69;100.00
48968;BME280;46511;53.148;8.204;2023-01-30T08:27:51;100897.09;;;7.52;100.00
48968;BME280;46511;53.148;8.204;2023-01-30T08:30:22;100899.50;;;7.79;100.00
48968;BME280;46511;53.148;8.204;2023-01-30T08:32:54;100890.56;;;7.61;100.00
48968;BME280;46511;53.148;8.204;2023-01-30T08:35:25;100907.75;;;7.71;100.00
48968;BME280;46511;53.148;8.204;2023-01-30T08:37:56;100908.63;;;7.71;100.00
48968;BME280;46511;53.148;8.204;2023-01-30T08:40:27;100905.16;;;7.90;100.00
48968;BME280;46511;53.148;8.204;2023-01-30T08:42:59;100907.00;;;8.08;100.00
48968;BME280;46511;53.148;8.204;2023-01-30T08:45:31;100897.50;;;8.43;100.00
48968;BME280;46511;53.148;8.204;2023-01-30T08:48:04;100902.38;;;7.93;99.39
48968;BME280;46511;53.148;8.204;2023-01-30T08:50:35;100901.31;;;8.17;98.98
48968;BME280;46511;53.148;8.204;2023-01-30T08:53:07;100901.44;;;8.14;98.96
48968;BME280;46511;53.148;8.204;2023-01-30T08:55:39;100902.88;;;8.21;100.00
48968;BME280;46511;53.148;8.204;2023-01-30T08:58:11;100902.66;;;8.65;98.97
48968;BME280;46511;53.148;8.204;2023-01-30T09:00:42;100912.63;;;9.15;95.80
48968;BME280;46511;53.148;8.204;2023-01-30T09:03:14;100895.22;;;8.73;92.63
48968;BME280;46511;53.148;8.204;2023-01-30T09:05:46;100918.13;;;8.74;94.95
48968;BME280;46511;53.148;8.204;2023-01-30T09:08:24;100903.75;;;8.22;95.24
48968;BME280;46511;53.148;8.204;2023-01-30T09:10:59;100905.81;;;8.36;97.55
48968;BME280;46511;53.148;8.204;2023-01-30T09:13:31;100916.75;;;8.08;100.00
48968;BME280;46511;53.148;8.204;2023-01-30T09:16:04;100907.97;;;7.87;100.00
48968;BME280;46511;53.148;8.204;2023-01-30T09:18:37;100908.38;;;7.78;100.00
48968;BME280;46511;53.148;8.204;2023-01-30T09:21:10;100901.41;;;7.75;100.00
48968;BME280;46511;53.148;8.204;2023-01-30T09:23:42;100899.59;;;7.76;100.00
48968;BME280;46511;53.148;8.204;2023-01-30T09:26:14;100915.63;;;7.72;100.00
48968;BME280;46511;53.148;8.204;2023-01-30T09:28:45;100907.75;;;7.91;100.00
48968;BME280;46511;53.148;8.204;2023-01-30T09:31:16;100923.00;;;8.83;100.00
48968;BME280;46511;53.148;8.204;2023-01-30T09:33:47;100911.50;;;10.24;94.76
48968;BME280;46511;53.148;8.204;2023-01-30T09:36:19;100921.47;;;10.37;86.16
48968;BME280;46511;53.148;8.204;2023-01-30T09:38:50;100916.94;;;9.18;88.77
48968;BME280;46511;53.148;8.204;2023-01-30T09:41:43;100923.06;;;8.44;93.07
48968;BME280;46511;53.148;8.204;2023-01-30T09:47:14;100917.19;;;8.75;100.00
48968;BME280;46511;53.148;8.204;2023-01-30T09:50:06;100906.22;;;9.02;98.69
48968;BME280;46511;53.148;8.204;2023-01-30T09:56:01;100901.94;;;9.53;91.10
48968;BME280;46511;53.148;8.204;2023-01-30T09:58:41;100908.66;;;8.87;95.08
48968;BME280;46511;53.148;8.204;2023-01-30T10:01:16;100875.81;;;8.15;97.36
48968;BME280;46511;53.148;8.204;2023-01-30T10:03:55;100910.38;;;8.51;100.00
48968;BME280;46511;53.148;8.204;2023-01-30T10:06:35;100917.47;;;7.91;100.00
48968;BME280;46511;53.148;8.204;2023-01-30T10:09:32;100922.97;;;8.07;100.00
48968;BME280;46511;53.148;8.204;2023-01-30T10:12:57;100915.59;;;7.93;100.00
48968;BME280;46511;53.148;8.204;2023-01-30T10:15:24;100920.91;;;8.32;100.00
48968;BME280;46511;53.148;8.204;2023-01-30T10:20:47;100915.19;;;8.80;99.13
48968;BME280;46511;53.148;8.204;2023-01-30T10:26:42;100897.44;;;8.45;99.85
48968;BME280;46511;53.148;8.204;2023-01-30T10:29:22;100902.78;;;8.62;100.00
48968;BME280;46511;53.148;8.204;2023-01-30T10:32:00;100924.00;;;9.17;97.27
48968;BME280;46511;53.148;8.204;2023-01-30T10:34:40;100912.91;;;7.74;100.00
48968;BME280;46511;53.148;8.204;2023-01-30T10:37:19;100893.13;;;7.62;100.00
48968;BME280;46511;53.148;8.204;2023-01-30T10:43:29;100890.97;;;7.72;100.00
48968;BME280;46511;53.148;8.204;2023-01-30T10:49:14;100900.09;;;11.79;93.65
48968;BME280;46511;53.148;8.204;2023-01-30T11:00:42;100801.22;;;10.96;81.10
48968;BME280;46511;53.148;8.204;2023-01-30T11:06:12;100902.56;;;9.40;90.59
48968;BME280;46511;53.148;8.204;2023-01-30T11:08:47;100912.84;;;9.29;90.48
48968;BME280;46511;53.148;8.204;2023-01-30T11:11:22;100899.59;;;9.64;90.11
48968;BME280;46511;53.148;8.204;2023-01-30T11:14:01;100904.56;;;10.86;82.69
48968;BME280;46511;53.148;8.204;2023-01-30T11:19:23;100910.47;;;10.76;78.04
48968;BME280;46511;53.148;8.204;2023-01-30T11:22:03;100911.59;;;10.72;80.33
48968;BME280;46511;53.148;8.204;2023-01-30T11:24:42;100906.47;;;11.76;75.46
48968;BME280;46511;53.148;8.204;2023-01-30T11:27:28;100922.47;;;11.60;71.20
48968;BME280;46511;53.148;8.204;2023-01-30T11:32:44;100903.66;;;11.33;70.69
48968;BME280;46511;53.148;8.204;2023-01-30T11:35:27;100903.88;;;10.83;74.25
48968;BME280;46511;53.148;8.204;2023-01-30T11:38:19;100899.88;;;11.67;68.56
48968;BME280;46511;53.148;8.204;2023-01-30T11:41:03;100896.28;;;15.27;57.87
48968;BME280;46511;53.148;8.204;2023-01-30T11:43:40;100902.06;;;14.97;54.03
48968;BME280;46511;53.148;8.204;2023-01-30T11:46:12;100897.38;;;17.18;48.42
48968;BME280;46511;53.148;8.204;2023-01-30T11:48:53;100908.50;;;17.46;47.84
48968;BME280;46511;53.148;8.204;2023-01-30T11:51:28;100908.41;;;16.59;48.25
48968;BME280;46511;53.148;8.204;2023-01-30T11:54:04;100918.91;;;15.58;48.91
48968;BME280;46511;53.148;8.204;2023-01-30T11:56:45;100923.53;;;13.95;54.70
48968;BME280;46511;53.148;8.204;2023-01-30T11:59:23;100928.91;;;12.45;60.56
48968;BME280;46511;53.148;8.204;2023-01-30T12:02:14;100929.84;;;11.55;65.53
48968;BME280;46511;53.148;8.204;2023-01-30T12:04:53;100925.03;;;11.32;68.33
48968;BME280;46511;53.148;8.204;2023-01-30T12:07:36;100917.91;;;11.16;70.57
48968;BME280;46511;53.148;8.204;2023-01-30T12:10:16;100912.44;;;10.88;72.34
48968;BME280;46511;53.148;8.204;2023-01-30T12:13:02;100925.75;;;10.39;73.01
48968;BME280;46511;53.148;8.204;2023-01-30T12:15:56;100930.25;;;10.70;75.38
48968;BME280;46511;53.148;8.204;2023-01-30T12:18:37;100919.84;;;10.17;75.62
48968;BME280;46511;53.148;8.204;2023-01-30T12:24:02;100954.03;;;8.99;90.04
48968;BME280;46511;53.148;8.204;2023-01-30T12:32:06;100979.50;;;8.04;100.00
48968;BME280;46511;53.148;8.204;2023-01-30T12:34:43;100971.22;;;8.32;100.00
48968;BME280;46511;53.148;8.204;2023-01-30T12:43:04;100977.25;;;8.15;100.00
48968;BME280;46511;53.148;8.204;2023-01-30T12:45:39;100980.28;;;8.86;100.00
48968;BME280;46511;53.148;8.204;2023-01-30T12:51:18;100970.63;;;13.84;76.57
48968;BME280;46511;53.148;8.204;2023-01-30T12:54:01;100959.41;;;14.93;64.54
48968;BME280;46511;53.148;8.204;2023-01-30T13:11:09;101006.41;;;10.87;74.65
48968;BME280;46511;53.148;8.204;2023-01-30T13:17:07;101002.81;;;9.68;81.12
48968;BME280;46511;53.148;8.204;2023-01-30T13:20:02;101018.22;;;9.96;82.80
48968;BME280;46511;53.148;8.204;2023-01-30T13:25:32;101030.16;;;9.88;82.90
48968;BME280;46511;53.148;8.204;2023-01-30T13:28:13;101039.78;;;9.71;84.59
48968;BME280;46511;53.148;8.204;2023-01-30T13:30:51;101038.50;;;9.80;85.91
48968;BME280;46511;53.148;8.204;2023-01-30T13:33:25;101039.56;;;10.47;80.60
48968;BME280;46511;53.148;8.204;2023-01-30T13:39:02;101031.25;;;10.86;76.92
48968;BME280;46511;53.148;8.204;2023-01-30T13:41:41;101046.06;;;11.23;73.67
48968;BME280;46511;53.148;8.204;2023-01-30T13:44:25;101049.78;;;10.37;74.74
48968;BME280;46511;53.148;8.204;2023-01-30T13:47:21;101060.97;;;10.44;76.70
48968;BME280;46511;53.148;8.204;2023-01-30T13:53:18;101082.22;;;9.90;81.00
48968;BME280;46511;53.148;8.204;2023-01-30T14:07:23;101135.00;;;9.21;85.97
48968;BME280;46511;53.148;8.204;2023-01-30T14:12:42;101146.06;;;9.31;85.86
48968;BME280;46511;53.148;8.204;2023-01-30T14:20:44;101155.91;;;9.27;85.84
48968;BME280;46511;53.148;8.204;2023-01-30T14:23:21;101170.19;;;9.43;84.87
48968;BME280;46511;53.148;8.204;2023-01-30T14:25:57;101163.38;;;9.76;83.60
48968;BME280;46511;53.148;8.204;2023-01-30T14:31:00;101186.56;;;9.72;84.16
48968;BME280;46511;53.148;8.204;2023-01-30T14:33:35;101194.75;;;9.28;83.83
48968;BME280;46511;53.148;8.204;2023-01-30T14:38:55;101207.69;;;9.55;83.83
48968;BME280;46511;53.148;8.204;2023-01-30T14:42:09;101202.81;;;9.45;84.03
48968;BME280;46511;53.148;8.204;2023-01-30T14:45:12;101218.69;;;9.27;84.58
48968;BME280;46511;53.148;8.204;2023-01-30T14:47:45;101224.41;;;9.57;84.56
48968;BME280;46511;53.148;8.204;2023-01-30T14:50:20;101228.03;;;9.35;85.23
48968;BME280;46511;53.148;8.204;2023-01-30T14:52:53;101249.00;;;9.21;85.64
48968;BME280;46511;53.148;8.204;2023-01-30T14:55:26;101243.44;;;9.46;85.12
48968;BME280;46511;53.148;8.204;2023-01-30T14:58:00;101246.06;;;9.27;85.96
48968;BME280;46511;53.148;8.204;2023-01-30T15:00:34;101266.84;;;9.36;85.68
48968;BME280;46511;53.148;8.204;2023-01-30T15:03:15;101262.34;;;9.59;84.09
48968;BME280;46511;53.148;8.204;2023-01-30T15:05:50;101268.19;;;9.26;84.42
48968;BME280;46511;53.148;8.204;2023-01-30T15:08:22;101293.50;;;9.33;85.85
48968;BME280;46511;53.148;8.204;2023-01-30T15:25:13;101336.16;;;9.07;83.09
48968;BME280;46511;53.148;8.204;2023-01-30T15:30:46;101364.28;;;9.11;82.52
48968;BME280;46511;53.148;8.204;2023-01-30T15:33:50;101378.88;;;8.99;83.55
48968;BME280;46511;53.148;8.204;2023-01-30T15:36:24;101389.34;;;9.24;83.20
48968;BME280;46511;53.148;8.204;2023-01-30T15:41:30;101401.28;;;8.92;83.22
48968;BME280;46511;53.148;8.204;2023-01-30T15:46:47;101411.25;;;8.85;83.50
48968;BME280;46511;53.148;8.204;2023-01-30T15:49:38;101417.19;;;8.91;83.17
48968;BME280;46511;53.148;8.204;2023-01-30T15:52:13;101418.59;;;9.01;83.42
48968;BME280;46511;53.148;8.204;2023-01-30T15:54:51;101422.94;;;8.35;86.64
48968;BME280;46511;53.148;8.204;2023-01-30T15:57:25;101434.19;;;8.63;87.29
48968;BME280;46511;53.148;8.204;2023-01-30T16:00:06;101439.72;;;8.57;88.06
48968;BME280;46511;53.148;8.204;2023-01-30T16:02:40;101443.22;;;8.09;89.01
48968;BME280;46511;53.148;8.204;2023-01-30T16:05:16;101452.69;;;8.15;89.80
48968;BME280;46511;53.148;8.204;2023-01-30T16:07:50;101449.03;;;8.19;90.20
48968;BME280;46511;53.148;8.204;2023-01-30T16:10:26;101473.00;;;8.14;90.44
48968;BME280;46511;53.148;8.204;2023-01-30T16:13:02;101465.91;;;8.41;90.22
48968;BME280;46511;53.148;8.204;2023-01-30T16:21:16;101484.69;;;8.09;94.92
48968;BME280;46511;53.148;8.204;2023-01-30T16:23:52;101514.56;;;7.86;95.88
48968;BME280;46511;53.148;8.204;2023-01-30T16:26:26;101511.03;;;8.12;95.12
48968;BME280;46511;53.148;8.204;2023-01-30T16:29:27;101520.97;;;8.05;97.00